Bow Clipper — LAUU4 — position and weather

sailwx.info

Track history (hours):
 
Tides and Currents Weather Stations Pressure Air Temp Water Temp Dewpoint Dewpoint Depression Visibility Wind Speed Wind Dir Waves Ship Positions

Bow Clipper

Last reported at 2014-Aug-21 02:28 UTC. Time now 2014-Aug-21 14:11 UTC.
Position N 01°11' E 103°40'.

Length 188 m; draft 6.1 m.

Type: Ship (hazmat cat B). MMSI: 258946991.

Date/timePositionNaut miles runAvg speedWind from/ knotsBaromVisibWave heightAir tempDewpointWater temp
2014-Aug-21 02:28N 01°11' E 103°40'1111.5
2014-Aug-21 01:33N 01°11' E 103°50'1514.5
2014-Aug-21 00:31N 01°16' E 104°05'  
2014-Aug-11 12:22N 31°01' E 124°22'6613.6
2014-Aug-11 07:32N 30°17' E 123°26'1312.9
2014-Aug-11 06:30N 30°08' E 123°15'2613.1
2014-Aug-11 04:32N 29°54' E 122°50'1414.0
2014-Aug-11 03:33N 29°45' E 122°38'1414.2
2014-Aug-11 02:33N 29°45' E 122°21'  
Track history (hours):
 
Tides and Currents Weather Stations Pressure Air Temp Water Temp Dewpoint Dewpoint Depression Visibility Wind Speed Wind Dir Waves Ship Positions

Bow Clipper

Last reported at 2014-Aug-21 02:28 UTC. Time now 2014-Aug-21 14:11 UTC.
Position N 01°11' E 103°40'.

Length 188 m; draft 6.1 m.

Type: Ship (hazmat cat B). MMSI: 258946991.

Date/timePositionNaut miles runAvg speedWind from/ knotsBaromVisibWave heightAir tempDewpointWater temp
2014-Aug-21 02:28N 01°11' E 103°40'1111.5
2014-Aug-21 01:33N 01°11' E 103°50'1514.5
2014-Aug-21 00:31N 01°16' E 104°05'  
2014-Aug-11 12:22N 31°01' E 124°22'6613.6
2014-Aug-11 07:32N 30°17' E 123°26'1312.9
2014-Aug-11 06:30N 30°08' E 123°15'2613.1
2014-Aug-11 04:32N 29°54' E 122°50'1414.0
2014-Aug-11 03:33N 29°45' E 122°38'1414.2
2014-Aug-11 02:33N 29°45' E 122°21'  

Dump ship's entire track history